createdAt,value
2018-02-25T00:00:44.538Z,1023.19
2018-02-25T00:01:44.529Z,1023.17
2018-02-25T00:02:44.537Z,1023.19
2018-02-25T00:03:44.545Z,1023.21
2018-02-25T00:04:44.566Z,1023.16
2018-02-25T00:05:44.607Z,1023.14
2018-02-25T00:06:44.589Z,1023.20
2018-02-25T00:07:44.534Z,1023.19
2018-02-25T00:08:44.524Z,1023.15
2018-02-25T00:09:44.539Z,1023.17
2018-02-25T00:10:44.577Z,1023.15
2018-02-25T00:11:44.543Z,1023.18
2018-02-25T00:12:44.563Z,1023.19
2018-02-25T00:13:44.576Z,1023.18
2018-02-25T00:14:44.697Z,1023.15
2018-02-25T00:15:44.582Z,1023.14
2018-02-25T00:16:44.553Z,1023.16
2018-02-25T00:17:44.644Z,1023.16
2018-02-25T00:18:44.558Z,1023.14
2018-02-25T00:19:44.567Z,1023.14
2018-02-25T00:20:44.563Z,1023.12
2018-02-25T00:21:44.618Z,1023.17
2018-02-25T00:22:44.586Z,1023.12
2018-02-25T00:23:44.696Z,1023.13
2018-02-25T00:24:44.590Z,1023.15
2018-02-25T00:25:44.580Z,1023.12
2018-02-25T00:26:44.605Z,1023.15
2018-02-25T00:27:44.583Z,1023.12
2018-02-25T00:28:44.696Z,1023.14
2018-02-25T00:29:44.589Z,1023.11
2018-02-25T00:30:44.636Z,1023.15
2018-02-25T00:31:44.636Z,1023.12
2018-02-25T00:32:44.771Z,1023.11
2018-02-25T00:33:45.454Z,1023.13
2018-02-25T00:34:44.605Z,1023.11
2018-02-25T00:35:44.607Z,1023.18
2018-02-25T00:36:44.682Z,1023.14
2018-02-25T00:37:44.601Z,1023.19
2018-02-25T00:38:44.748Z,1023.18
2018-02-25T00:39:44.613Z,1023.22
2018-02-25T00:40:44.690Z,1023.21
2018-02-25T00:41:44.612Z,1023.18
2018-02-25T00:42:44.632Z,1023.22
2018-02-25T00:43:44.606Z,1023.25
2018-02-25T00:44:44.605Z,1023.22
2018-02-25T00:45:44.631Z,1023.23
2018-02-25T00:46:44.620Z,1023.27
2018-02-25T00:47:44.628Z,1023.23
2018-02-25T00:48:44.636Z,1023.29
2018-02-25T00:49:44.626Z,1023.32
2018-02-25T00:50:44.637Z,1023.26
2018-02-25T00:51:44.640Z,1023.26
2018-02-25T00:52:44.642Z,1023.29
2018-02-25T00:53:44.631Z,1023.30
2018-02-25T00:54:44.738Z,1023.27
2018-02-25T00:55:44.661Z,1023.26
2018-02-25T00:56:44.677Z,1023.25
2018-02-25T00:57:44.644Z,1023.24
2018-02-25T00:58:44.640Z,1023.21
2018-02-25T00:59:44.645Z,1023.20
2018-02-25T01:00:44.701Z,1023.15
2018-02-25T01:01:44.655Z,1023.19
2018-02-25T01:02:44.680Z,1023.18
2018-02-25T01:03:44.718Z,1023.25
2018-02-25T01:04:44.662Z,1023.21
2018-02-25T01:05:44.700Z,1023.25
2018-02-25T01:06:44.668Z,1023.23
2018-02-25T01:07:44.782Z,1023.22
2018-02-25T01:08:44.705Z,1023.24
2018-02-25T01:09:44.678Z,1023.26
2018-02-25T01:10:44.684Z,1023.22
2018-02-25T01:11:44.688Z,1023.26
2018-02-25T01:12:44.689Z,1023.24
2018-02-25T01:13:44.679Z,1023.29
2018-02-25T01:14:44.704Z,1023.30
2018-02-25T01:15:44.687Z,1023.31
2018-02-25T01:16:44.687Z,1023.31
2018-02-25T01:17:44.711Z,1023.34
2018-02-25T01:18:44.706Z,1023.32
2018-02-25T01:19:44.697Z,1023.32
2018-02-25T01:20:44.724Z,1023.36
2018-02-25T01:21:44.744Z,1023.31
2018-02-25T01:22:44.769Z,1023.33
2018-02-25T01:23:44.705Z,1023.35
2018-02-25T01:24:44.708Z,1023.42
2018-02-25T01:25:44.710Z,1023.33
2018-02-25T01:26:44.724Z,1023.38
2018-02-25T01:27:44.715Z,1023.39
2018-02-25T01:28:44.720Z,1023.38
2018-02-25T01:29:44.711Z,1023.44
2018-02-25T01:30:44.716Z,1023.44
2018-02-25T01:31:44.722Z,1023.45
2018-02-25T01:32:44.725Z,1023.45
2018-02-25T01:33:44.724Z,1023.49
2018-02-25T01:34:44.749Z,1023.44
2018-02-25T01:35:44.865Z,1023.43
2018-02-25T01:36:44.733Z,1023.42
2018-02-25T01:37:44.725Z,1023.44
2018-02-25T01:38:44.774Z,1023.43
2018-02-25T01:39:44.735Z,1023.44
2018-02-25T01:40:44.737Z,1023.48
2018-02-25T01:41:44.743Z,1023.48
2018-02-25T01:42:44.735Z,1023.52
2018-02-25T01:43:44.738Z,1023.49
2018-02-25T01:44:44.755Z,1023.45
2018-02-25T01:45:44.750Z,1023.45
2018-02-25T01:46:44.747Z,1023.47
2018-02-25T01:47:44.759Z,1023.45
2018-02-25T01:48:44.818Z,1023.45
2018-02-25T01:49:44.758Z,1023.42
2018-02-25T01:50:44.768Z,1023.41
2018-02-25T01:51:44.782Z,1023.38
2018-02-25T01:52:44.764Z,1023.41
2018-02-25T01:53:44.769Z,1023.37
2018-02-25T01:54:44.785Z,1023.41
2018-02-25T01:55:44.769Z,1023.40
2018-02-25T01:56:44.769Z,1023.33
2018-02-25T01:57:44.777Z,1023.38
2018-02-25T01:58:44.814Z,1023.36
2018-02-25T01:59:44.845Z,1023.40
2018-02-25T02:00:44.803Z,1023.36
2018-02-25T02:01:44.971Z,1023.39
2018-02-25T02:02:44.795Z,1023.42
2018-02-25T02:03:44.842Z,1023.41
2018-02-25T02:04:44.803Z,1023.38
2018-02-25T02:05:44.804Z,1023.36
2018-02-25T02:06:44.784Z,1023.32
2018-02-25T02:07:45.354Z,1023.31
2018-02-25T02:08:44.794Z,1023.28
2018-02-25T02:09:44.815Z,1023.29
2018-02-25T02:10:44.799Z,1023.25
2018-02-25T02:11:44.849Z,1023.21
2018-02-25T02:12:44.810Z,1023.27
2018-02-25T02:13:44.797Z,1023.28
2018-02-25T02:14:44.846Z,1023.24
2018-02-25T02:15:44.817Z,1023.25
2018-02-25T02:16:44.837Z,1023.29
2018-02-25T02:17:44.809Z,1023.27
2018-02-25T02:18:44.829Z,1023.26
2018-02-25T02:19:44.822Z,1023.26
2018-02-25T02:20:44.823Z,1023.21
2018-02-25T02:21:44.880Z,1023.32
2018-02-25T02:22:44.900Z,1023.27
2018-02-25T02:23:44.833Z,1023.27
2018-02-25T02:24:44.831Z,1023.26
2018-02-25T02:25:44.832Z,1023.27
2018-02-25T02:26:44.835Z,1023.28
2018-02-25T02:27:44.859Z,1023.28
2018-02-25T02:28:44.838Z,1023.30
2018-02-25T02:29:44.838Z,1023.25
2018-02-25T02:30:44.833Z,1023.28
2018-02-25T02:31:44.848Z,1023.27
2018-02-25T02:32:44.867Z,1023.29
2018-02-25T02:33:44.846Z,1023.29
2018-02-25T02:34:44.869Z,1023.27
2018-02-25T02:35:44.863Z,1023.28
2018-02-25T02:36:44.865Z,1023.32
2018-02-25T02:37:44.852Z,1023.26
2018-02-25T02:38:44.864Z,1023.27
2018-02-25T02:39:44.876Z,1023.33
2018-02-25T02:40:44.862Z,1023.26
2018-02-25T02:41:44.919Z,1023.29
2018-02-25T02:42:45.351Z,1023.32
2018-02-25T02:43:44.871Z,1023.34
2018-02-25T02:44:44.868Z,1023.31
2018-02-25T02:45:44.882Z,1023.28
2018-02-25T02:46:44.867Z,1023.32
2018-02-25T02:47:44.868Z,1023.31
2018-02-25T02:48:44.874Z,1023.28
2018-02-25T02:49:44.868Z,1023.27
2018-02-25T02:50:44.894Z,1023.33
2018-02-25T02:51:44.891Z,1023.32
2018-02-25T02:52:44.902Z,1023.34
2018-02-25T02:53:44.883Z,1023.33
2018-02-25T02:54:44.897Z,1023.32
2018-02-25T02:55:44.939Z,1023.40
2018-02-25T02:56:44.881Z,1023.42
2018-02-25T02:57:44.897Z,1023.41
2018-02-25T02:58:44.888Z,1023.40
2018-02-25T02:59:44.908Z,1023.42
2018-02-25T03:00:44.917Z,1023.45
2018-02-25T03:01:44.907Z,1023.42
2018-02-25T03:02:44.949Z,1023.44
2018-02-25T03:03:44.921Z,1023.48
2018-02-25T03:04:44.892Z,1023.49
2018-02-25T03:05:44.893Z,1023.50
2018-02-25T03:06:44.900Z,1023.61
2018-02-25T03:07:44.901Z,1023.55
2018-02-25T03:08:45.002Z,1023.56
2018-02-25T03:09:44.907Z,1023.61
2018-02-25T03:10:44.911Z,1023.56
2018-02-25T03:11:44.936Z,1023.59
2018-02-25T03:12:44.915Z,1023.59
2018-02-25T03:13:44.924Z,1023.64
2018-02-25T03:14:44.926Z,1023.65
2018-02-25T03:15:44.913Z,1023.60
2018-02-25T03:16:44.919Z,1023.58
2018-02-25T03:17:44.951Z,1023.66
2018-02-25T03:18:44.940Z,1023.68
2018-02-25T03:19:44.932Z,1023.72
2018-02-25T03:20:44.963Z,1023.72
2018-02-25T03:21:44.952Z,1023.70
2018-02-25T03:22:44.951Z,1023.70
2018-02-25T03:23:44.936Z,1023.71
2018-02-25T03:24:44.942Z,1023.71
2018-02-25T03:25:44.988Z,1023.72
2018-02-25T03:26:44.992Z,1023.74
2018-02-25T03:27:45.017Z,1023.73
2018-02-25T03:28:44.964Z,1023.72
2018-02-25T03:29:44.972Z,1023.76
2018-02-25T03:30:44.932Z,1023.80
2018-02-25T03:31:44.947Z,1023.75
2018-02-25T03:32:44.951Z,1023.79
2018-02-25T03:33:44.970Z,1023.86
2018-02-25T03:34:44.953Z,1023.78
2018-02-25T03:35:44.954Z,1023.84
2018-02-25T03:36:44.959Z,1023.83
2018-02-25T03:37:44.942Z,1023.84
2018-02-25T03:38:44.957Z,1023.87
2018-02-25T03:39:45.090Z,1023.86
2018-02-25T03:40:44.957Z,1023.81
2018-02-25T03:41:45.072Z,1023.85
2018-02-25T03:42:44.950Z,1023.86
2018-02-25T03:43:44.999Z,1023.88
2018-02-25T03:44:45.012Z,1023.85
2018-02-25T03:45:44.947Z,1023.88
2018-02-25T03:46:44.962Z,1023.87
2018-02-25T03:47:44.961Z,1023.87
2018-02-25T03:48:44.965Z,1023.88
2018-02-25T03:49:44.967Z,1023.88
2018-02-25T03:50:44.966Z,1023.86
2018-02-25T03:51:44.970Z,1023.87
2018-02-25T03:52:45.096Z,1023.89
2018-02-25T03:53:44.968Z,1023.88
2018-02-25T03:54:44.969Z,1023.92
2018-02-25T03:55:44.987Z,1023.93
2018-02-25T03:56:44.979Z,1023.95
2018-02-25T03:57:44.986Z,1023.92
2018-02-25T03:58:45.018Z,1023.92
2018-02-25T03:59:45.136Z,1023.95
2018-02-25T04:00:44.986Z,1023.96
2018-02-25T04:01:45.015Z,1023.96
2018-02-25T04:02:45.011Z,1023.96
2018-02-25T04:03:44.991Z,1024.00
2018-02-25T04:04:44.986Z,1024.00
2018-02-25T04:05:45.022Z,1024.00
2018-02-25T04:06:44.999Z,1024.05
2018-02-25T04:07:45.013Z,1024.03
2018-02-25T04:08:45.012Z,1024.01
2018-02-25T04:09:44.995Z,1024.09
2018-02-25T04:10:45.066Z,1024.06
2018-02-25T04:11:45.008Z,1024.11
2018-02-25T04:12:45.023Z,1024.10
2018-02-25T04:13:45.000Z,1024.08
2018-02-25T04:14:45.011Z,1024.13
2018-02-25T04:15:45.020Z,1024.12
2018-02-25T04:16:45.016Z,1024.13
2018-02-25T04:17:45.028Z,1024.10
2018-02-25T04:18:45.022Z,1024.09
2018-02-25T04:19:45.010Z,1024.13
2018-02-25T04:20:45.068Z,1024.13
2018-02-25T04:21:45.040Z,1024.14
2018-02-25T04:22:45.033Z,1024.20
2018-02-25T04:23:45.097Z,1024.18
2018-02-25T04:24:45.017Z,1024.16
2018-02-25T04:25:45.036Z,1024.22
2018-02-25T04:26:45.020Z,1024.21
2018-02-25T04:27:45.029Z,1024.19
2018-02-25T04:28:45.029Z,1024.16
2018-02-25T04:29:45.019Z,1024.14
2018-02-25T04:30:45.031Z,1024.13
2018-02-25T04:31:45.037Z,1024.12
2018-02-25T04:32:45.030Z,1024.13
2018-02-25T04:33:45.046Z,1024.13
2018-02-25T04:34:45.047Z,1024.16
2018-02-25T04:35:45.028Z,1024.12
2018-02-25T04:36:45.198Z,1024.11
2018-02-25T04:37:45.036Z,1024.11
2018-02-25T04:38:45.067Z,1024.08
2018-02-25T04:39:45.042Z,1024.12
2018-02-25T04:40:45.050Z,1024.10
2018-02-25T04:41:45.050Z,1024.10
2018-02-25T04:42:45.094Z,1024.09
2018-02-25T04:43:45.059Z,1024.07
2018-02-25T04:44:45.054Z,1024.09
2018-02-25T04:45:45.037Z,1024.07
2018-02-25T04:46:45.047Z,1024.08
2018-02-25T04:47:45.075Z,1024.08
2018-02-25T04:48:45.060Z,1024.09
2018-02-25T04:49:45.055Z,1024.08
2018-02-25T04:50:45.051Z,1024.06
2018-02-25T04:51:45.053Z,1024.06
2018-02-25T04:52:45.065Z,1024.05
2018-02-25T04:53:45.080Z,1024.03
2018-02-25T04:54:45.074Z,1024.02
2018-02-25T04:55:45.052Z,1024.05
2018-02-25T04:56:45.103Z,1024.01
2018-02-25T04:57:45.177Z,1023.98
2018-02-25T04:58:45.067Z,1024.03
2018-02-25T04:59:45.071Z,1024.03
2018-02-25T05:00:45.092Z,1024.03
2018-02-25T05:01:45.076Z,1024.03
2018-02-25T05:02:45.079Z,1024.01
2018-02-25T05:03:45.079Z,1024.02
2018-02-25T05:04:45.092Z,1024.05
2018-02-25T05:05:45.070Z,1024.02
2018-02-25T05:06:45.084Z,1024.00
2018-02-25T05:07:45.182Z,1024.00
2018-02-25T05:08:45.068Z,1024.04
2018-02-25T05:09:45.076Z,1024.03
2018-02-25T05:10:45.090Z,1024.02
2018-02-25T05:11:45.096Z,1024.04
2018-02-25T05:12:45.069Z,1024.02
2018-02-25T05:13:45.084Z,1024.00
2018-02-25T05:14:45.085Z,1024.03
2018-02-25T05:15:45.142Z,1024.01
2018-02-25T05:16:45.127Z,1024.07
2018-02-25T05:17:45.090Z,1024.05
2018-02-25T05:18:45.091Z,1024.06
2018-02-25T05:19:45.116Z,1024.08
2018-02-25T05:20:45.177Z,1024.05
2018-02-25T05:21:45.115Z,1024.04
2018-02-25T05:22:45.149Z,1024.07
2018-02-25T05:23:45.091Z,1024.07
2018-02-25T05:24:45.117Z,1024.09
2018-02-25T05:25:45.088Z,1024.07
2018-02-25T05:26:45.094Z,1024.07
2018-02-25T05:27:45.100Z,1024.08
2018-02-25T05:28:45.128Z,1024.08
2018-02-25T05:29:45.114Z,1024.10
2018-02-25T05:30:45.126Z,1024.05
2018-02-25T05:31:45.098Z,1024.12
2018-02-25T05:32:45.149Z,1024.12
2018-02-25T05:33:45.146Z,1024.10
2018-02-25T05:34:45.108Z,1024.09
2018-02-25T05:35:45.110Z,1024.11
2018-02-25T05:36:45.121Z,1024.11
2018-02-25T05:37:45.111Z,1024.12
2018-02-25T05:38:45.261Z,1024.07
2018-02-25T05:39:45.121Z,1024.14
2018-02-25T05:40:45.114Z,1024.10
2018-02-25T05:41:45.138Z,1024.11
2018-02-25T05:42:45.133Z,1024.10
2018-02-25T05:43:45.114Z,1024.06
2018-02-25T05:44:45.117Z,1024.11
2018-02-25T05:45:45.125Z,1024.10
2018-02-25T05:46:45.117Z,1024.09
2018-02-25T05:47:45.141Z,1024.13
2018-02-25T05:48:45.122Z,1024.08
2018-02-25T05:49:45.115Z,1024.07
2018-02-25T05:50:45.157Z,1024.12
2018-02-25T05:51:45.283Z,1024.15
2018-02-25T05:52:45.160Z,1024.16
2018-02-25T05:53:45.126Z,1024.13
2018-02-25T05:54:45.158Z,1024.19
2018-02-25T05:55:45.153Z,1024.14
2018-02-25T05:56:45.135Z,1024.18
2018-02-25T05:57:45.140Z,1024.16
2018-02-25T05:58:45.132Z,1024.23
2018-02-25T05:59:45.148Z,1024.23
2018-02-25T06:00:45.136Z,1024.20
2018-02-25T06:01:45.172Z,1024.20
2018-02-25T06:02:45.155Z,1024.25
2018-02-25T06:03:45.138Z,1024.23
2018-02-25T06:04:45.145Z,1024.23
2018-02-25T06:05:45.148Z,1024.26
2018-02-25T06:06:45.142Z,1024.28
2018-02-25T06:07:45.168Z,1024.30
2018-02-25T06:08:45.141Z,1024.34
2018-02-25T06:09:45.144Z,1024.34
2018-02-25T06:10:45.157Z,1024.34
2018-02-25T06:11:45.139Z,1024.36
2018-02-25T06:12:45.152Z,1024.33
2018-02-25T06:13:45.160Z,1024.36
2018-02-25T06:14:45.166Z,1024.36
2018-02-25T06:15:45.158Z,1024.37
2018-02-25T06:16:45.181Z,1024.38
2018-02-25T06:17:45.156Z,1024.34
2018-02-25T06:18:45.152Z,1024.40
2018-02-25T06:19:45.153Z,1024.37
2018-02-25T06:20:45.157Z,1024.40
2018-02-25T06:21:45.168Z,1024.36
2018-02-25T06:22:45.149Z,1024.44
2018-02-25T06:23:45.169Z,1024.42
2018-02-25T06:24:45.162Z,1024.43
2018-02-25T06:25:45.198Z,1024.46
2018-02-25T06:26:45.148Z,1024.40
2018-02-25T06:27:45.150Z,1024.42
2018-02-25T06:28:45.218Z,1024.43
2018-02-25T06:29:45.160Z,1024.43
2018-02-25T06:30:45.171Z,1024.44
2018-02-25T06:31:45.209Z,1024.43
2018-02-25T06:32:45.162Z,1024.48
2018-02-25T06:33:45.212Z,1024.45
2018-02-25T06:34:45.185Z,1024.46
2018-02-25T06:35:45.262Z,1024.44
2018-02-25T06:36:45.161Z,1024.43
2018-02-25T06:37:45.170Z,1024.43
2018-02-25T06:38:45.275Z,1024.51
2018-02-25T06:39:45.159Z,1024.46
2018-02-25T06:40:45.165Z,1024.52
2018-02-25T06:41:45.192Z,1024.49
2018-02-25T06:42:45.168Z,1024.49
2018-02-25T06:43:45.180Z,1024.49
2018-02-25T06:44:45.174Z,1024.54
2018-02-25T06:45:45.221Z,1024.50
2018-02-25T06:46:45.172Z,1024.52
2018-02-25T06:47:45.214Z,1024.50
2018-02-25T06:48:45.247Z,1024.52
2018-02-25T06:49:45.202Z,1024.50
2018-02-25T06:50:45.185Z,1024.52
2018-02-25T06:51:45.180Z,1024.49
2018-02-25T06:52:45.172Z,1024.54
2018-02-25T06:53:45.179Z,1024.60
2018-02-25T06:54:45.175Z,1024.58
2018-02-25T06:55:45.180Z,1024.56
2018-02-25T06:56:45.188Z,1024.60
2018-02-25T06:57:45.240Z,1024.54
2018-02-25T06:58:45.836Z,1024.57
2018-02-25T06:59:45.241Z,1024.58
2018-02-25T07:00:45.190Z,1024.57
2018-02-25T07:01:45.197Z,1024.57
2018-02-25T07:02:45.190Z,1024.58
2018-02-25T07:03:45.195Z,1024.56
2018-02-25T07:04:45.202Z,1024.55
2018-02-25T07:05:45.193Z,1024.54
2018-02-25T07:06:45.196Z,1024.51
2018-02-25T07:07:45.198Z,1024.60
2018-02-25T07:08:45.288Z,1024.58
2018-02-25T07:09:45.202Z,1024.61
2018-02-25T07:10:45.196Z,1024.64
2018-02-25T07:11:45.208Z,1024.63
2018-02-25T07:12:45.202Z,1024.63
2018-02-25T07:13:45.201Z,1024.61
2018-02-25T07:14:45.228Z,1024.67
2018-02-25T07:15:45.218Z,1024.69
2018-02-25T07:16:45.228Z,1024.67
2018-02-25T07:17:45.311Z,1024.67
2018-02-25T07:18:45.213Z,1024.69
2018-02-25T07:19:45.237Z,1024.65
2018-02-25T07:20:45.227Z,1024.69
2018-02-25T07:21:45.221Z,1024.72
2018-02-25T07:22:45.227Z,1024.76
2018-02-25T07:23:45.219Z,1024.74
2018-02-25T07:24:45.222Z,1024.75
2018-02-25T07:25:45.259Z,1024.77
2018-02-25T07:26:45.267Z,1024.75
2018-02-25T07:27:45.206Z,1024.79
2018-02-25T07:28:45.240Z,1024.79
2018-02-25T07:29:45.214Z,1024.77
2018-02-25T07:30:45.224Z,1024.77
2018-02-25T07:31:45.228Z,1024.74
2018-02-25T07:32:45.229Z,1024.74
2018-02-25T07:33:45.227Z,1024.81
2018-02-25T07:34:45.233Z,1024.78
2018-02-25T07:35:45.231Z,1024.82
2018-02-25T07:36:45.227Z,1024.76
2018-02-25T07:37:45.244Z,1024.79
2018-02-25T07:38:45.241Z,1024.82
2018-02-25T07:39:45.241Z,1024.82
2018-02-25T07:40:45.251Z,1024.80
2018-02-25T07:41:45.244Z,1024.82
2018-02-25T07:42:45.821Z,1024.83
2018-02-25T07:43:45.236Z,1024.82
2018-02-25T07:44:45.246Z,1024.81
2018-02-25T07:45:45.266Z,1024.83
2018-02-25T07:46:45.269Z,1024.80
2018-02-25T07:47:45.273Z,1024.81
2018-02-25T07:48:45.268Z,1024.78
2018-02-25T07:49:45.251Z,1024.82
2018-02-25T07:50:45.249Z,1024.79
2018-02-25T07:51:45.254Z,1024.84
2018-02-25T07:52:45.257Z,1024.82
2018-02-25T07:53:45.264Z,1024.97
2018-02-25T07:54:45.264Z,1024.93
2018-02-25T07:55:45.349Z,1024.98
2018-02-25T07:56:45.269Z,1024.97
2018-02-25T07:57:45.336Z,1024.96
2018-02-25T07:58:45.284Z,1025.00
2018-02-25T07:59:45.292Z,1025.03
2018-02-25T08:00:45.296Z,1025.01
2018-02-25T08:01:45.325Z,1025.05
2018-02-25T08:02:45.316Z,1025.03
2018-02-25T08:03:45.322Z,1025.07
2018-02-25T08:04:45.325Z,1025.08
2018-02-25T08:05:45.323Z,1025.15
2018-02-25T08:06:45.330Z,1025.09
2018-02-25T08:07:45.337Z,1025.13
2018-02-25T08:08:45.351Z,1025.12
2018-02-25T08:09:45.345Z,1025.14
2018-02-25T08:10:45.364Z,1025.13
2018-02-25T08:11:45.370Z,1025.13
2018-02-25T08:12:45.374Z,1025.14
2018-02-25T08:13:45.383Z,1025.16
2018-02-25T08:14:45.393Z,1025.21
2018-02-25T08:15:45.397Z,1025.12
2018-02-25T08:16:45.406Z,1025.20
2018-02-25T08:17:45.420Z,1025.24
2018-02-25T08:18:45.412Z,1025.23
2018-02-25T08:19:45.432Z,1025.21
2018-02-25T08:20:45.466Z,1025.23
2018-02-25T08:21:45.470Z,1025.29
2018-02-25T08:22:45.455Z,1025.25
2018-02-25T08:23:45.485Z,1025.25
2018-02-25T08:24:45.490Z,1025.25
2018-02-25T08:25:45.474Z,1025.22
2018-02-25T08:26:45.486Z,1025.30
2018-02-25T08:27:45.492Z,1025.30
2018-02-25T08:28:45.501Z,1025.30
2018-02-25T08:29:45.503Z,1025.38
2018-02-25T08:30:45.515Z,1025.34
2018-02-25T08:31:45.515Z,1025.30
2018-02-25T08:32:45.549Z,1025.29
2018-02-25T08:33:45.544Z,1025.32
2018-02-25T08:34:45.559Z,1025.34
2018-02-25T08:35:45.548Z,1025.31
2018-02-25T08:36:45.586Z,1025.35
2018-02-25T08:37:45.599Z,1025.28
2018-02-25T08:38:45.575Z,1025.31
2018-02-25T08:39:45.581Z,1025.32
2018-02-25T08:40:45.592Z,1025.33
2018-02-25T08:41:45.589Z,1025.28
2018-02-25T08:42:45.609Z,1025.24
2018-02-25T08:43:45.616Z,1025.29
2018-02-25T08:44:45.624Z,1025.24
2018-02-25T08:45:45.623Z,1025.26
2018-02-25T08:46:45.791Z,1025.29
2018-02-25T08:47:45.630Z,1025.29
2018-02-25T08:48:45.633Z,1025.21
2018-02-25T08:49:45.649Z,1025.23
2018-02-25T08:50:45.648Z,1025.25
2018-02-25T08:51:45.645Z,1025.29
2018-02-25T08:52:45.651Z,1025.31
2018-02-25T08:53:45.671Z,1025.31
2018-02-25T08:54:45.675Z,1025.27
2018-02-25T08:55:45.674Z,1025.29
2018-02-25T08:56:45.714Z,1025.30
2018-02-25T08:57:45.685Z,1025.30
2018-02-25T08:58:45.695Z,1025.35
2018-02-25T08:59:45.704Z,1025.32
2018-02-25T09:00:45.704Z,1025.33
2018-02-25T09:01:45.733Z,1025.26
2018-02-25T09:02:45.722Z,1025.30
2018-02-25T09:03:45.732Z,1025.28
2018-02-25T09:04:45.729Z,1025.27
2018-02-25T09:05:45.740Z,1025.28
2018-02-25T09:06:45.758Z,1025.28
2018-02-25T09:07:45.758Z,1025.25
2018-02-25T09:08:45.780Z,1025.28
2018-02-25T09:09:45.795Z,1025.27
2018-02-25T09:10:45.783Z,1025.28
2018-02-25T09:11:45.802Z,1025.25
2018-02-25T09:12:45.796Z,1025.22
2018-02-25T09:13:45.827Z,1025.24
2018-02-25T09:14:45.915Z,1025.24
2018-02-25T09:15:45.848Z,1025.26
2018-02-25T09:16:45.846Z,1025.25
2018-02-25T09:17:45.845Z,1025.22
2018-02-25T09:18:45.880Z,1025.21
2018-02-25T09:19:45.872Z,1025.20
2018-02-25T09:20:45.914Z,1025.22
2018-02-25T09:21:45.884Z,1025.30
2018-02-25T09:22:45.898Z,1025.29
2018-02-25T09:23:45.898Z,1025.30
2018-02-25T09:24:45.896Z,1025.29
2018-02-25T09:25:45.920Z,1025.32
2018-02-25T09:26:45.930Z,1025.31
2018-02-25T09:27:45.958Z,1025.27
2018-02-25T09:28:45.962Z,1025.23
2018-02-25T09:29:45.959Z,1025.29
2018-02-25T09:30:45.978Z,1025.28
2018-02-25T09:31:45.985Z,1025.30
2018-02-25T09:32:45.991Z,1025.32
2018-02-25T09:33:46.033Z,1025.27
2018-02-25T09:34:46.013Z,1025.31
2018-02-25T09:35:46.039Z,1025.29
2018-02-25T09:36:46.040Z,1025.26
2018-02-25T09:37:46.061Z,1025.37
2018-02-25T09:38:46.069Z,1025.22
2018-02-25T09:39:46.094Z,1025.20
2018-02-25T09:40:46.081Z,1025.25
2018-02-25T09:41:46.099Z,1025.33
2018-02-25T09:42:46.111Z,1025.20
2018-02-25T09:43:46.128Z,1025.25
2018-02-25T09:44:46.184Z,1025.32
2018-02-25T09:45:46.162Z,1025.31
2018-02-25T09:46:46.168Z,1025.27
2018-02-25T09:47:46.188Z,1025.26
2018-02-25T09:48:46.197Z,1025.29
2018-02-25T09:49:46.198Z,1025.28
2018-02-25T09:50:46.227Z,1025.33
2018-02-25T09:51:46.258Z,1025.32
2018-02-25T09:52:46.238Z,1025.30
2018-02-25T09:53:46.254Z,1025.29
2018-02-25T09:54:46.282Z,1025.27
2018-02-25T09:55:46.297Z,1025.27
2018-02-25T09:56:46.302Z,1025.28
2018-02-25T09:57:46.314Z,1025.28
2018-02-25T09:58:46.319Z,1025.29
2018-02-25T09:59:46.333Z,1025.33
2018-02-25T10:00:46.351Z,1025.34
2018-02-25T10:01:46.369Z,1025.30
2018-02-25T10:02:46.405Z,1025.36
2018-02-25T10:03:46.401Z,1025.36
2018-02-25T10:04:46.404Z,1025.37
2018-02-25T10:05:46.423Z,1025.34
2018-02-25T10:06:46.474Z,1025.31
2018-02-25T10:07:46.448Z,1025.33
2018-02-25T10:08:46.448Z,1025.27
2018-02-25T10:09:46.493Z,1025.29
2018-02-25T10:10:46.479Z,1025.26
2018-02-25T10:11:46.509Z,1025.27
2018-02-25T10:12:46.520Z,1025.27
2018-02-25T10:13:46.565Z,1025.23
2018-02-25T10:14:46.538Z,1025.22
2018-02-25T10:15:46.543Z,1025.22
2018-02-25T10:16:46.557Z,1025.28
2018-02-25T10:17:46.611Z,1025.28
2018-02-25T10:18:46.614Z,1025.27
2018-02-25T10:19:46.621Z,1025.29
2018-02-25T10:20:46.626Z,1025.30
2018-02-25T10:21:46.628Z,1025.28
2018-02-25T10:22:46.700Z,1025.23
2018-02-25T10:23:46.659Z,1025.34
2018-02-25T10:24:46.674Z,1025.21
2018-02-25T10:25:46.691Z,1025.19
2018-02-25T10:26:46.712Z,1025.20
2018-02-25T10:27:46.764Z,1025.22
2018-02-25T10:28:46.738Z,1025.16
2018-02-25T10:29:46.744Z,1025.17
2018-02-25T10:30:46.747Z,1025.15
2018-02-25T10:31:46.796Z,1025.17
2018-02-25T10:32:46.811Z,1025.14
2018-02-25T10:33:46.805Z,1025.12
2018-02-25T10:34:46.854Z,1025.12
2018-02-25T10:35:46.856Z,1025.10
2018-02-25T10:36:46.854Z,1025.14
2018-02-25T10:37:46.852Z,1025.07
2018-02-25T10:38:46.979Z,1025.02
2018-02-25T10:39:46.938Z,1025.05
2018-02-25T10:40:46.924Z,1025.01
2018-02-25T10:41:46.910Z,1024.94
2018-02-25T10:42:46.947Z,1025.01
2018-02-25T10:43:46.940Z,1025.00
2018-02-25T10:44:46.954Z,1024.97
2018-02-25T10:45:46.980Z,1025.08
2018-02-25T10:46:47.031Z,1024.95
2018-02-25T10:47:47.022Z,1024.93
2018-02-25T10:48:47.019Z,1024.93
2018-02-25T10:49:47.036Z,1025.01
2018-02-25T10:50:47.045Z,1024.95
2018-02-25T10:51:47.089Z,1025.00
2018-02-25T10:52:47.071Z,1024.99
2018-02-25T10:53:47.084Z,1024.99
2018-02-25T10:54:47.109Z,1024.95
2018-02-25T10:55:47.130Z,1024.97
2018-02-25T10:56:47.133Z,1024.95
2018-02-25T10:57:47.243Z,1024.94
2018-02-25T10:58:47.157Z,1024.89
2018-02-25T10:59:47.170Z,1024.90
2018-02-25T11:00:47.286Z,1024.94
2018-02-25T11:01:47.208Z,1024.92
2018-02-25T11:02:47.242Z,1024.92
2018-02-25T11:03:47.244Z,1024.89
2018-02-25T11:04:47.248Z,1024.83
2018-02-25T11:05:47.265Z,1024.86
2018-02-25T11:06:47.282Z,1024.79
2018-02-25T11:07:47.326Z,1024.84
2018-02-25T11:08:47.322Z,1024.85
2018-02-25T11:09:47.322Z,1024.85
2018-02-25T11:10:47.357Z,1024.84
2018-02-25T11:11:47.365Z,1024.77
2018-02-25T11:12:47.382Z,1024.77
2018-02-25T11:13:47.374Z,1024.76
2018-02-25T11:14:47.416Z,1024.75
2018-02-25T11:15:47.399Z,1024.69
2018-02-25T11:16:47.410Z,1024.68
2018-02-25T11:17:47.443Z,1024.73
2018-02-25T11:18:47.493Z,1024.67
2018-02-25T11:19:47.467Z,1024.68
2018-02-25T11:20:47.540Z,1024.64
2018-02-25T11:21:47.518Z,1024.70
2018-02-25T11:22:47.514Z,1024.67
2018-02-25T11:23:47.529Z,1024.65
2018-02-25T11:24:47.541Z,1024.57
2018-02-25T11:25:47.551Z,1024.62
2018-02-25T11:26:47.599Z,1024.61
2018-02-25T11:27:47.584Z,1024.68
2018-02-25T11:28:47.592Z,1024.56
2018-02-25T11:29:47.605Z,1024.48
2018-02-25T11:30:47.618Z,1024.53
2018-02-25T11:31:47.756Z,1024.55
2018-02-25T11:32:47.652Z,1024.51
2018-02-25T11:33:47.665Z,1024.49
2018-02-25T11:34:47.674Z,1024.49
2018-02-25T11:35:47.805Z,1024.47
2018-02-25T11:36:47.717Z,1024.50
2018-02-25T11:37:47.766Z,1024.49
2018-02-25T11:38:47.742Z,1024.48
2018-02-25T11:39:47.779Z,1024.42
2018-02-25T11:40:47.793Z,1024.42
2018-02-25T11:41:47.784Z,1024.40
2018-02-25T11:42:47.828Z,1024.42
2018-02-25T11:43:47.866Z,1024.44
2018-02-25T11:44:47.850Z,1024.45
2018-02-25T11:45:47.880Z,1024.44
2018-02-25T11:46:47.962Z,1024.35
2018-02-25T11:47:47.863Z,1024.32
2018-02-25T11:48:47.907Z,1024.29
2018-02-25T11:49:48.014Z,1024.31
2018-02-25T11:50:47.969Z,1024.37
2018-02-25T11:51:47.938Z,1024.34
2018-02-25T11:52:47.973Z,1024.24
2018-02-25T11:53:47.956Z,1024.26
2018-02-25T11:54:47.968Z,1024.27
2018-02-25T11:55:47.989Z,1024.29
2018-02-25T11:56:48.005Z,1024.30
2018-02-25T11:57:48.056Z,1024.31
2018-02-25T11:58:48.029Z,1024.29
2018-02-25T11:59:48.158Z,1024.24
2018-02-25T12:00:48.080Z,1024.24
2018-02-25T12:01:48.120Z,1024.23
2018-02-25T12:02:48.094Z,1024.24
2018-02-25T12:03:48.160Z,1024.23
2018-02-25T12:04:48.115Z,1024.21
2018-02-25T12:05:48.120Z,1024.19